createdAt,value
2023-05-22T00:00:09.676Z,0.00
2023-05-22T00:01:09.764Z,0.00
2023-05-22T00:02:09.745Z,0.00
2023-05-22T00:03:09.575Z,0.00
2023-05-22T00:04:09.783Z,0.00
2023-05-22T00:05:09.632Z,0.00
2023-05-22T00:06:09.817Z,0.00
2023-05-22T00:07:09.469Z,0.00
2023-05-22T00:08:09.614Z,0.00
2023-05-22T00:09:09.305Z,0.00
2023-05-22T00:10:09.479Z,0.00
2023-05-22T00:11:09.257Z,0.00
2023-05-22T00:12:09.455Z,0.00
2023-05-22T00:13:09.127Z,0.00
2023-05-22T00:14:09.083Z,0.00
2023-05-22T00:15:09.059Z,0.00
2023-05-22T00:16:10.290Z,0.00
2023-05-22T00:17:09.055Z,0.00
2023-05-22T00:18:10.564Z,0.00
2023-05-22T00:19:08.892Z,0.00
2023-05-22T00:20:08.893Z,0.00
2023-05-22T00:21:08.801Z,0.00
2023-05-22T00:22:08.910Z,0.00
2023-05-22T00:23:08.707Z,0.00
2023-05-22T00:24:08.915Z,0.00
2023-05-22T00:25:08.629Z,0.00
2023-05-22T00:26:08.611Z,0.00
2023-05-22T00:27:08.755Z,0.00
2023-05-22T00:28:08.532Z,0.00
2023-05-22T00:29:08.745Z,0.00
2023-05-22T00:30:08.665Z,0.00
2023-05-22T00:31:08.556Z,0.00
2023-05-22T00:32:08.340Z,0.00
2023-05-22T00:33:08.639Z,0.00
2023-05-22T00:34:08.393Z,0.00
2023-05-22T00:35:08.372Z,0.00
2023-05-22T00:36:08.180Z,0.00
2023-05-22T00:37:08.460Z,0.00
2023-05-22T00:38:08.087Z,0.00
2023-05-22T00:39:09.224Z,0.00
2023-05-22T00:40:07.999Z,0.00
2023-05-22T00:41:09.658Z,0.00
2023-05-22T00:42:07.956Z,0.00
2023-05-22T00:43:07.878Z,0.00
2023-05-22T00:44:07.842Z,0.00
2023-05-22T00:45:09.096Z,0.00
2023-05-22T00:46:07.862Z,0.00
2023-05-22T00:47:08.159Z,0.00
2023-05-22T00:48:07.868Z,0.00
2023-05-22T00:49:07.621Z,0.00
2023-05-22T00:50:07.682Z,0.00
2023-05-22T00:51:07.683Z,0.00
2023-05-22T00:52:07.507Z,0.00
2023-05-22T00:53:07.904Z,0.00
2023-05-22T00:54:07.419Z,0.00
2023-05-22T00:55:07.445Z,0.00
2023-05-22T00:56:08.616Z,0.00
2023-05-22T00:57:07.317Z,0.00
2023-05-22T00:58:08.570Z,0.00
2023-05-22T00:59:07.275Z,0.00
2023-05-22T01:00:08.376Z,0.00
2023-05-22T01:01:07.119Z,0.00
2023-05-22T01:02:07.472Z,0.00
2023-05-22T01:03:07.148Z,0.00
2023-05-22T01:04:07.347Z,0.00
2023-05-22T01:05:06.976Z,0.00
2023-05-22T01:06:06.903Z,0.00
2023-05-22T01:07:06.863Z,0.00
2023-05-22T01:08:06.978Z,0.00
2023-05-22T01:09:06.791Z,0.00
2023-05-22T01:10:07.040Z,0.00
2023-05-22T01:11:08.104Z,0.00
2023-05-22T01:12:06.646Z,0.00
2023-05-22T01:13:06.607Z,0.00
2023-05-22T01:14:06.823Z,0.00
2023-05-22T01:15:06.611Z,0.00
2023-05-22T01:16:06.875Z,0.00
2023-05-22T01:17:06.459Z,0.00
2023-05-22T01:18:06.501Z,0.00
2023-05-22T01:19:06.484Z,0.00
2023-05-22T01:20:06.470Z,0.00
2023-05-22T01:21:06.265Z,0.00
2023-05-22T01:22:06.498Z,0.00
2023-05-22T01:23:06.191Z,0.00
2023-05-22T01:24:07.357Z,0.00
2023-05-22T01:25:06.288Z,0.00
2023-05-22T01:26:06.059Z,0.00
2023-05-22T01:27:07.353Z,0.00
2023-05-22T01:28:05.974Z,0.00
2023-05-22T01:29:06.521Z,0.00
2023-05-22T01:30:05.884Z,0.00
2023-05-22T01:31:06.170Z,0.00
2023-05-22T01:32:05.803Z,0.00
2023-05-22T01:33:06.100Z,0.00
2023-05-22T01:34:05.749Z,0.00
2023-05-22T01:35:05.825Z,0.00
2023-05-22T01:36:05.633Z,0.00
2023-05-22T01:37:05.761Z,0.00
2023-05-22T01:38:05.563Z,0.00
2023-05-22T01:39:05.789Z,0.00
2023-05-22T01:40:05.472Z,0.00
2023-05-22T01:41:05.467Z,0.00
2023-05-22T01:42:05.638Z,0.00
2023-05-22T01:43:05.604Z,0.00
2023-05-22T01:44:05.302Z,0.00
2023-05-22T01:45:06.340Z,0.00
2023-05-22T01:46:05.257Z,0.00
2023-05-22T01:47:05.207Z,0.00
2023-05-22T01:48:06.715Z,0.00
2023-05-22T01:49:05.145Z,0.00
2023-05-22T01:50:05.261Z,0.00
2023-05-22T01:51:05.044Z,0.00
2023-05-22T01:52:05.162Z,0.00
2023-05-22T01:53:04.926Z,0.00
2023-05-22T01:54:04.967Z,0.00
2023-05-22T01:55:04.897Z,0.00
2023-05-22T01:56:06.013Z,0.00
2023-05-22T01:57:04.744Z,0.00
2023-05-22T01:58:04.707Z,0.00
2023-05-22T01:59:04.658Z,0.00
2023-05-22T02:00:04.802Z,0.00
2023-05-22T02:01:05.242Z,0.00
2023-05-22T02:02:04.631Z,0.00
2023-05-22T02:03:04.630Z,0.00
2023-05-22T02:04:04.445Z,0.00
2023-05-22T02:05:04.404Z,0.00
2023-05-22T02:06:05.474Z,0.00
2023-05-22T02:07:04.421Z,0.00
2023-05-22T02:08:04.459Z,0.00
2023-05-22T02:09:04.258Z,0.00
2023-05-22T02:10:04.194Z,0.00
2023-05-22T02:11:05.302Z,0.00
2023-05-22T02:12:04.161Z,0.00
2023-05-22T02:13:25.182Z,0.00
2023-05-22T02:14:04.023Z,0.00
2023-05-22T02:15:06.149Z,0.00
2023-05-22T02:16:04.028Z,0.00
2023-05-22T02:17:26.067Z,0.00
2023-05-22T02:18:03.937Z,0.00
2023-05-22T02:19:05.164Z,0.00
2023-05-22T02:20:03.765Z,0.00
2023-05-22T02:21:05.382Z,0.00
2023-05-22T02:22:03.679Z,0.00
2023-05-22T02:23:04.990Z,0.00
2023-05-22T02:24:03.627Z,0.00
2023-05-22T02:25:03.806Z,0.00
2023-05-22T02:26:03.516Z,0.00
2023-05-22T02:27:03.478Z,0.00
2023-05-22T02:28:03.422Z,0.00
2023-05-22T02:29:03.591Z,0.00
2023-05-22T02:30:03.331Z,0.00
2023-05-22T02:31:04.431Z,0.00
2023-05-22T02:32:03.249Z,0.00
2023-05-22T02:33:03.263Z,0.00
2023-05-22T02:34:03.259Z,0.00
2023-05-22T02:35:03.157Z,0.00
2023-05-22T02:36:03.264Z,0.00
2023-05-22T02:37:03.035Z,0.00
2023-05-22T02:38:03.095Z,0.00
2023-05-22T02:39:02.957Z,0.00
2023-05-22T02:40:03.064Z,0.00
2023-05-22T02:41:03.132Z,0.00
2023-05-22T02:42:03.901Z,0.00
2023-05-22T02:43:02.783Z,0.00
2023-05-22T02:44:03.918Z,0.00
2023-05-22T02:45:02.721Z,0.00
2023-05-22T02:46:02.842Z,0.00
2023-05-22T02:47:02.730Z,0.00
2023-05-22T02:48:06.129Z,0.00
2023-05-22T02:49:02.565Z,0.00
2023-05-22T02:50:02.478Z,0.00
2023-05-22T02:51:02.486Z,0.00
2023-05-22T02:52:02.434Z,0.00
2023-05-22T02:53:02.378Z,0.00
2023-05-22T02:54:03.465Z,0.00
2023-05-22T02:55:03.544Z,0.00
2023-05-22T02:56:02.251Z,0.00
2023-05-22T02:57:02.207Z,0.00
2023-05-22T02:58:02.369Z,0.00
2023-05-22T02:59:02.092Z,0.00
2023-05-22T03:00:02.221Z,0.00
2023-05-22T03:01:02.019Z,0.00
2023-05-22T03:02:02.504Z,0.00
2023-05-22T03:03:01.986Z,0.00
2023-05-22T03:04:02.107Z,0.00
2023-05-22T03:05:01.843Z,0.00
2023-05-22T03:06:02.940Z,0.00
2023-05-22T03:07:01.793Z,0.00
2023-05-22T03:08:01.711Z,0.00
2023-05-22T03:09:02.754Z,0.00
2023-05-22T03:10:01.677Z,0.00
2023-05-22T03:11:01.756Z,0.00
2023-05-22T03:12:01.581Z,4.00
2023-05-22T03:13:02.590Z,4.00
2023-05-22T03:14:01.610Z,4.00
2023-05-22T03:15:03.625Z,4.00
2023-05-22T03:16:01.427Z,4.00
2023-05-22T03:17:01.397Z,8.00
2023-05-22T03:18:01.366Z,8.00
2023-05-22T03:19:01.251Z,8.00
2023-05-22T03:20:01.200Z,8.00
2023-05-22T03:21:01.200Z,12.00
2023-05-22T03:22:01.095Z,16.00
2023-05-22T03:23:02.247Z,16.00
2023-05-22T03:24:01.025Z,20.00
2023-05-22T03:25:00.971Z,20.00
2023-05-22T03:26:02.110Z,28.00
2023-05-22T03:27:02.096Z,32.00
2023-05-22T03:28:00.845Z,36.00
2023-05-22T03:29:02.078Z,40.00
2023-05-22T03:30:00.756Z,52.00
2023-05-22T03:31:00.729Z,60.00
2023-05-22T03:32:03.951Z,68.00
2023-05-22T03:33:00.638Z,76.00
2023-05-22T03:34:00.777Z,84.00
2023-05-22T03:35:00.550Z,96.00
2023-05-22T03:36:01.725Z,112.00
2023-05-22T03:37:00.456Z,124.00
2023-05-22T03:38:02.764Z,136.00
2023-05-22T03:39:00.368Z,152.00
2023-05-22T03:40:23.475Z,172.00
2023-05-22T03:41:00.276Z,188.00
2023-05-22T03:42:00.263Z,204.00
2023-05-22T03:43:00.197Z,228.00
2023-05-22T03:44:01.383Z,252.00
2023-05-22T03:45:00.152Z,276.00
2023-05-22T03:46:00.208Z,300.00
2023-05-22T03:47:00.025Z,328.00
2023-05-22T03:47:59.995Z,356.00
2023-05-22T03:48:59.990Z,392.00
2023-05-22T03:49:59.941Z,424.00
2023-05-22T03:51:01.036Z,456.00
2023-05-22T03:51:59.841Z,492.00
2023-05-22T03:53:00.008Z,532.00
2023-05-22T03:53:59.816Z,572.00
2023-05-22T03:54:59.683Z,616.00
2023-05-22T03:56:00.050Z,660.00
2023-05-22T03:56:59.617Z,704.00
2023-05-22T03:57:59.694Z,752.00
2023-05-22T03:58:59.504Z,796.00
2023-05-22T03:59:59.464Z,844.00
2023-05-22T04:01:20.556Z,892.00
2023-05-22T04:01:59.470Z,944.00
2023-05-22T04:02:59.726Z,996.00
2023-05-22T04:03:59.305Z,1048.00
2023-05-22T04:04:59.551Z,1104.00
2023-05-22T04:05:59.198Z,1156.00
2023-05-22T04:06:59.309Z,1212.00
2023-05-22T04:07:59.115Z,1268.00
2023-05-22T04:09:00.134Z,1328.00
2023-05-22T04:09:59.043Z,1388.00
2023-05-22T04:10:59.208Z,1444.00
2023-05-22T04:11:58.952Z,1508.00
2023-05-22T04:12:59.127Z,1564.00
2023-05-22T04:13:58.844Z,1628.00
2023-05-22T04:14:59.045Z,1688.00
2023-05-22T04:15:58.830Z,1752.00
2023-05-22T04:16:58.760Z,1812.00
2023-05-22T04:17:58.708Z,1876.00
2023-05-22T04:18:58.936Z,1940.00
2023-05-22T04:19:58.719Z,2000.00
2023-05-22T04:21:19.770Z,2064.00
2023-05-22T04:21:58.506Z,2124.00
2023-05-22T04:22:58.464Z,2188.00
2023-05-22T04:23:58.406Z,2244.00
2023-05-22T04:24:58.603Z,2308.00
2023-05-22T04:25:59.515Z,2368.00
2023-05-22T04:26:58.412Z,2428.00
2023-05-22T04:27:58.273Z,2488.00
2023-05-22T04:28:58.208Z,2544.00
2023-05-22T04:29:58.158Z,2604.00
2023-05-22T04:30:58.272Z,2660.00
2023-05-22T04:31:58.063Z,2716.00
2023-05-22T04:32:59.523Z,2776.00
2023-05-22T04:33:57.976Z,2832.00
2023-05-22T04:34:59.118Z,2892.00
2023-05-22T04:35:57.925Z,2944.00
2023-05-22T04:37:20.004Z,3004.00
2023-05-22T04:37:57.806Z,3060.00
2023-05-22T04:38:57.875Z,3120.00
2023-05-22T04:39:57.718Z,3172.00
2023-05-22T04:40:57.675Z,3228.00
2023-05-22T04:41:57.712Z,3288.00
2023-05-22T04:42:57.593Z,3340.00
2023-05-22T04:43:59.779Z,3392.00
2023-05-22T04:44:57.786Z,3444.00
2023-05-22T04:45:57.480Z,3500.00
2023-05-22T04:46:57.609Z,3552.00
2023-05-22T04:47:58.608Z,3612.00
2023-05-22T04:48:57.648Z,3664.00
2023-05-22T04:49:57.574Z,3716.00
2023-05-22T04:50:57.248Z,3768.00
2023-05-22T04:51:57.205Z,3820.00
2023-05-22T04:52:57.498Z,3872.00
2023-05-22T04:53:57.115Z,3920.00
2023-05-22T04:55:00.463Z,3968.00
2023-05-22T04:55:57.272Z,4016.00
2023-05-22T04:56:56.982Z,4064.00
2023-05-22T04:57:56.965Z,4108.00
2023-05-22T04:58:57.011Z,4156.00
2023-05-22T04:59:56.852Z,4200.00
2023-05-22T05:00:57.476Z,4244.00
2023-05-22T05:01:56.776Z,4292.00
2023-05-22T05:02:56.782Z,4340.00
2023-05-22T05:03:56.739Z,4388.00
2023-05-22T05:04:58.705Z,4436.00
2023-05-22T05:05:56.605Z,4484.00
2023-05-22T05:06:56.873Z,4532.00
2023-05-22T05:07:56.518Z,4584.00
2023-05-22T05:08:56.478Z,4620.00
2023-05-22T05:09:56.419Z,4660.00
2023-05-22T05:10:56.487Z,4704.00
2023-05-22T05:11:56.336Z,4744.00
2023-05-22T05:12:56.704Z,4784.00
2023-05-22T05:13:56.383Z,4832.00
2023-05-22T05:14:56.312Z,4872.00
2023-05-22T05:15:56.572Z,4912.00
2023-05-22T05:16:56.344Z,4960.00
2023-05-22T05:17:56.169Z,5004.00
2023-05-22T05:18:56.234Z,5052.00
2023-05-22T05:19:58.194Z,5092.00
2023-05-22T05:20:55.948Z,5132.00
2023-05-22T05:21:56.154Z,5172.00
2023-05-22T05:22:55.862Z,5220.00
2023-05-22T05:23:55.976Z,5260.00
2023-05-22T05:24:55.771Z,5296.00
2023-05-22T05:25:55.738Z,5336.00
2023-05-22T05:26:55.708Z,5372.00
2023-05-22T05:27:56.201Z,5412.00
2023-05-22T05:28:55.619Z,5452.00
2023-05-22T05:29:55.836Z,5488.00
2023-05-22T05:30:55.521Z,5532.00
2023-05-22T05:31:55.665Z,5568.00
2023-05-22T05:32:55.467Z,5608.00
2023-05-22T05:33:55.644Z,5648.00
2023-05-22T05:34:55.479Z,5692.00
2023-05-22T05:35:57.482Z,5732.00
2023-05-22T05:36:57.532Z,5776.00
2023-05-22T05:37:55.229Z,5816.00
2023-05-22T05:38:55.263Z,5864.00
2023-05-22T05:39:55.329Z,5916.00
2023-05-22T05:40:56.329Z,5968.00
2023-05-22T05:41:55.052Z,6028.00
2023-05-22T05:42:55.006Z,6060.00
2023-05-22T05:43:54.961Z,6112.00
2023-05-22T05:44:55.167Z,6156.00
2023-05-22T05:45:54.900Z,6192.00
2023-05-22T05:46:55.959Z,6224.00
2023-05-22T05:47:54.853Z,6256.00
2023-05-22T05:48:55.007Z,6288.00
2023-05-22T05:49:54.714Z,6312.00
2023-05-22T05:50:54.939Z,6352.00
2023-05-22T05:51:54.666Z,6396.00
2023-05-22T05:52:54.747Z,6428.00
2023-05-22T05:53:55.800Z,6464.00
2023-05-22T05:54:54.494Z,6496.00
2023-05-22T05:55:54.562Z,6524.00
2023-05-22T05:56:54.407Z,6552.00
2023-05-22T05:57:55.825Z,6580.00
2023-05-22T05:58:54.351Z,6608.00
2023-05-22T05:59:54.296Z,6636.00
2023-05-22T06:03:47.399Z,6776.00
2023-05-22T06:04:46.889Z,6800.00
2023-05-22T06:05:46.915Z,6828.00
2023-05-22T06:07:10.009Z,6856.00
2023-05-22T06:07:46.737Z,6888.00
2023-05-22T06:08:48.931Z,6916.00
2023-05-22T06:09:46.652Z,6948.00
2023-05-22T06:10:46.608Z,6976.00
2023-05-22T06:11:46.777Z,7004.00
2023-05-22T06:12:46.706Z,7036.00
2023-05-22T06:13:46.476Z,7060.00
2023-05-22T06:14:46.718Z,7088.00
2023-05-22T06:15:46.437Z,7120.00
2023-05-22T06:16:46.413Z,7164.00
2023-05-22T06:17:46.434Z,7200.00
2023-05-22T06:18:47.601Z,7240.00
2023-05-22T06:19:46.231Z,7280.00
2023-05-22T06:20:46.352Z,7320.00
2023-05-22T06:21:46.235Z,7364.00
2023-05-22T06:22:46.197Z,7400.00
2023-05-22T06:23:46.174Z,7440.00
2023-05-22T06:24:46.048Z,7452.00
2023-05-22T06:25:47.238Z,7492.00
2023-05-22T06:26:45.932Z,7520.00
2023-05-22T06:27:45.886Z,7544.00
2023-05-22T06:28:51.180Z,7568.00
2023-05-22T06:29:46.028Z,7604.00
2023-05-22T06:30:45.971Z,7640.00
2023-05-22T06:31:45.853Z,7680.00
2023-05-22T06:32:45.899Z,7724.00
2023-05-22T06:33:45.836Z,7752.00
2023-05-22T06:34:45.622Z,7796.00
2023-05-22T06:35:46.673Z,7836.00
2023-05-22T06:36:45.519Z,7876.00
2023-05-22T06:37:45.659Z,7916.00
2023-05-22T06:38:45.443Z,7964.00
2023-05-22T06:39:45.423Z,8008.00
2023-05-22T06:40:46.506Z,8048.00
2023-05-22T06:41:45.303Z,8088.00
2023-05-22T06:42:45.489Z,8128.00
2023-05-22T06:43:45.219Z,8168.00
2023-05-22T06:44:45.195Z,8208.00
2023-05-22T06:45:45.602Z,8240.00
2023-05-22T06:46:45.330Z,8288.00
2023-05-22T06:47:45.177Z,8336.00
2023-05-22T06:48:45.129Z,8376.00
2023-05-22T06:49:44.976Z,8420.00
2023-05-22T06:50:44.936Z,8468.00
2023-05-22T06:51:44.905Z,8516.00
2023-05-22T06:52:45.978Z,8556.00
2023-05-22T06:53:45.005Z,8596.00
2023-05-22T06:54:45.993Z,8632.00
2023-05-22T06:55:44.770Z,8672.00
2023-05-22T06:56:44.720Z,8716.00
2023-05-22T06:57:44.852Z,8756.00
2023-05-22T06:58:44.609Z,8792.00
2023-05-22T06:59:44.619Z,8820.00
2023-05-22T07:00:44.812Z,8856.00
2023-05-22T07:01:44.548Z,8900.00
2023-05-22T07:02:44.632Z,8948.00
2023-05-22T07:03:44.404Z,8976.00
2023-05-22T07:04:44.639Z,8992.00
2023-05-22T07:05:44.511Z,9004.00
2023-05-22T07:06:46.496Z,9032.00
2023-05-22T07:07:44.243Z,9068.00
2023-05-22T07:08:44.466Z,9120.00
2023-05-22T07:09:44.161Z,9168.00
2023-05-22T07:10:44.274Z,9216.00
2023-05-22T07:11:44.110Z,9268.00
2023-05-22T07:12:45.325Z,9304.00
2023-05-22T07:13:43.993Z,9340.00
2023-05-22T07:14:44.094Z,9376.00
2023-05-22T07:15:46.460Z,9412.00
2023-05-22T07:16:44.167Z,9456.00
2023-05-22T07:17:43.876Z,9500.00
2023-05-22T07:18:43.819Z,9540.00
2023-05-22T07:19:43.756Z,9576.00
2023-05-22T07:20:45.181Z,9612.00
2023-05-22T07:21:43.667Z,9648.00
2023-05-22T07:22:43.946Z,9680.00
2023-05-22T07:23:43.594Z,9712.00
2023-05-22T07:24:43.553Z,9752.00
2023-05-22T07:25:43.525Z,9800.00
2023-05-22T07:26:43.766Z,9856.00
2023-05-22T07:27:43.422Z,9904.00
2023-05-22T07:28:43.784Z,9964.00
2023-05-22T07:29:43.345Z,10024.00
2023-05-22T07:30:43.318Z,10080.00
2023-05-22T07:31:43.436Z,10144.00
2023-05-22T07:32:43.280Z,10196.00
2023-05-22T07:33:44.435Z,10260.00
2023-05-22T07:34:43.152Z,10332.00
2023-05-22T07:36:04.094Z,10404.00
2023-05-22T07:36:43.225Z,10472.00
2023-05-22T07:37:43.032Z,10536.00
2023-05-22T07:38:47.777Z,10588.00
2023-05-22T07:39:42.936Z,10644.00
2023-05-22T07:40:43.060Z,10708.00
2023-05-22T07:41:42.917Z,10788.00
2023-05-22T07:42:43.075Z,10892.00
2023-05-22T07:43:42.782Z,11016.00
2023-05-22T07:44:42.891Z,11172.00
2023-05-22T07:45:42.722Z,11320.00
2023-05-22T07:46:44.082Z,11484.00
2023-05-22T07:47:43.176Z,11644.00
2023-05-22T07:48:42.703Z,11896.00
2023-05-22T07:49:42.552Z,12296.00
2023-05-22T07:50:42.717Z,23552.00
2023-05-22T07:51:42.452Z,46720.00
2023-05-22T07:52:42.731Z,58976.00
2023-05-22T07:53:44.835Z,62336.00
2023-05-22T07:54:44.270Z,54208.00
2023-05-22T07:55:42.298Z,36288.00
2023-05-22T07:56:42.554Z,42592.00
2023-05-22T07:57:42.213Z,56640.00
2023-05-22T07:58:42.183Z,59648.00
2023-05-22T07:59:42.193Z,59264.00
2023-05-22T08:00:44.224Z,63136.00
2023-05-22T08:01:43.472Z,67680.00
2023-05-22T08:02:43.430Z,60928.00
2023-05-22T08:03:42.114Z,58624.00
2023-05-22T08:04:42.000Z,66240.00
2023-05-22T08:05:44.060Z,67104.00
2023-05-22T08:06:41.875Z,62560.00
2023-05-22T08:07:42.225Z,56768.00
2023-05-22T08:08:41.799Z,59296.00
2023-05-22T08:09:43.279Z,65792.00
2023-05-22T08:10:58.288Z,64768.00
2023-05-22T08:11:42.872Z,67328.00
2023-05-22T08:12:41.649Z,63744.00
2023-05-22T08:13:41.855Z,61248.00
2023-05-22T08:14:41.928Z,63744.00
2023-05-22T08:15:41.544Z,62912.00
2023-05-22T08:16:41.540Z,68608.00
2023-05-22T08:17:41.708Z,66336.00
2023-05-22T08:18:41.442Z,74976.00
2023-05-22T08:19:41.813Z,71680.00
2023-05-22T08:20:41.633Z,73120.00
2023-05-22T08:21:41.338Z,76352.00
2023-05-22T08:22:41.513Z,67360.00
2023-05-22T08:23:41.276Z,69184.00
2023-05-22T08:24:41.531Z,67712.00
2023-05-22T08:25:41.204Z,73248.00
2023-05-22T08:26:42.113Z,75360.00
2023-05-22T08:27:41.136Z,72096.00
2023-05-22T08:28:42.374Z,70880.00
2023-05-22T08:29:41.082Z,69728.00
2023-05-22T08:30:41.329Z,69536.00
2023-05-22T08:31:41.019Z,72320.00
2023-05-22T08:32:40.995Z,75136.00
2023-05-22T08:33:42.265Z,64096.00
2023-05-22T08:34:41.193Z,65120.00
2023-05-22T08:35:40.869Z,68672.00
2023-05-22T08:36:42.025Z,75168.00
2023-05-22T08:37:40.804Z,73280.00
2023-05-22T08:38:40.838Z,77504.00
2023-05-22T08:39:42.880Z,78368.00
2023-05-22T08:40:41.941Z,72544.00
2023-05-22T08:41:40.834Z,88416.00
2023-05-22T08:42:40.637Z,81472.00
2023-05-22T08:43:40.844Z,86496.00
2023-05-22T08:44:40.913Z,100672.00
2023-05-22T08:45:40.657Z,72448.00
2023-05-22T08:46:40.541Z,71168.00
2023-05-22T08:47:40.693Z,75296.00
2023-05-22T08:48:40.453Z,80160.00
2023-05-22T08:49:40.419Z,95840.00
2023-05-22T08:50:40.653Z,86240.00
2023-05-22T08:51:40.500Z,84928.00
2023-05-22T08:52:40.324Z,91936.00
2023-05-22T08:53:41.538Z,86112.00
2023-05-22T08:54:40.252Z,78208.00
2023-05-22T08:55:40.232Z,78208.00
2023-05-22T08:56:53.017Z,80192.00
2023-05-22T08:57:40.151Z,78336.00
2023-05-22T08:58:40.349Z,86656.00
2023-05-22T08:59:40.093Z,89792.00
2023-05-22T09:00:42.378Z,86112.00
2023-05-22T09:01:40.146Z,93152.00
2023-05-22T09:02:40.276Z,85696.00
2023-05-22T09:03:40.015Z,73600.00
2023-05-22T09:04:40.202Z,73920.00
2023-05-22T09:05:39.911Z,88544.00
2023-05-22T09:06:46.088Z,87072.00
2023-05-22T09:07:39.905Z,84544.00
2023-05-22T09:08:39.815Z,93472.00
2023-05-22T09:09:39.925Z,89088.00
2023-05-22T09:10:39.994Z,77856.00
2023-05-22T09:11:39.931Z,77984.00
2023-05-22T09:12:39.698Z,87136.00
2023-05-22T09:13:40.970Z,83328.00
2023-05-22T09:14:39.666Z,83840.00
2023-05-22T09:15:39.779Z,88544.00
2023-05-22T09:16:39.638Z,90464.00
2023-05-22T09:17:40.741Z,96928.00
2023-05-22T09:18:39.555Z,95968.00
2023-05-22T09:19:39.759Z,86560.00
2023-05-22T09:20:39.818Z,96576.00
2023-05-22T09:21:39.603Z,106976.00
2023-05-22T09:22:39.399Z,96928.00
2023-05-22T09:23:39.385Z,93696.00
2023-05-22T09:24:39.372Z,104448.00
2023-05-22T09:26:02.773Z,105248.00
2023-05-22T09:26:39.282Z,106176.00
2023-05-22T09:27:39.452Z,115840.00
2023-05-22T09:28:39.240Z,109536.00
2023-05-22T09:29:39.206Z,101664.00
2023-05-22T09:30:39.528Z,99744.00
2023-05-22T09:31:39.301Z,82336.00
2023-05-22T09:32:39.169Z,83872.00
2023-05-22T09:33:41.528Z,95584.00
2023-05-22T09:34:39.065Z,87072.00
2023-05-22T09:35:39.172Z,90528.00
2023-05-22T09:36:39.013Z,112576.00
2023-05-22T09:37:39.112Z,103488.00
2023-05-22T09:38:38.982Z,88896.00
2023-05-22T09:39:39.114Z,94688.00
2023-05-22T09:40:39.289Z,98048.00
2023-05-22T09:41:38.885Z,99488.00
2023-05-22T09:43:00.039Z,97856.00
2023-05-22T09:43:38.823Z,94368.00
2023-05-22T09:45:01.078Z,96832.00
2023-05-22T09:45:38.773Z,92288.00
2023-05-22T09:46:38.831Z,93024.00
2023-05-22T09:47:38.994Z,104896.00
2023-05-22T09:48:39.956Z,109184.00
2023-05-22T09:49:38.781Z,89920.00
2023-05-22T09:50:38.849Z,85632.00
2023-05-22T09:51:38.707Z,101888.00
2023-05-22T09:52:38.593Z,105280.00
2023-05-22T09:53:39.737Z,104864.00
2023-05-22T09:54:38.563Z,111232.00
2023-05-22T09:55:38.724Z,117216.00
2023-05-22T09:56:39.866Z,121184.00
2023-05-22T09:57:38.438Z,115360.00
2023-05-22T09:58:38.415Z,93088.00
2023-05-22T09:59:38.563Z,89408.00
2023-05-22T10:00:38.802Z,99744.00
2023-05-22T10:01:38.655Z,118816.00
2023-05-22T10:02:38.328Z,126976.00
2023-05-22T10:03:38.284Z,109216.00
2023-05-22T10:04:38.478Z,96576.00
2023-05-22T10:05:39.469Z,111328.00
2023-05-22T10:08:11.790Z,98400.00
2023-05-22T10:09:11.420Z,118144.00
2023-05-22T10:10:13.445Z,134528.00
2023-05-22T10:11:11.381Z,107776.00
2023-05-22T10:12:13.661Z,81696.00
2023-05-22T10:13:11.320Z,117120.00
2023-05-22T10:14:11.426Z,141824.00
2023-05-22T10:15:11.272Z,99264.00
2023-05-22T10:16:12.510Z,80800.00
2023-05-22T10:17:11.287Z,121536.00
2023-05-22T10:18:11.580Z,132320.00
2023-05-22T10:19:11.208Z,106976.00
2023-05-22T10:20:11.139Z,106080.00
2023-05-22T10:21:11.118Z,114272.00
2023-05-22T10:22:11.275Z,101824.00
2023-05-22T10:23:11.064Z,90464.00
2023-05-22T10:24:11.293Z,103008.00
2023-05-22T10:25:11.179Z,125536.00
2023-05-22T10:26:10.988Z,131232.00
2023-05-22T10:27:11.104Z,138656.00
2023-05-22T10:28:10.993Z,134432.00
2023-05-22T10:29:12.163Z,115072.00
2023-05-22T10:30:10.950Z,98464.00
2023-05-22T10:31:10.897Z,103712.00
2023-05-22T10:32:10.867Z,112160.00
2023-05-22T10:33:32.101Z,132288.00
2023-05-22T10:34:10.894Z,149216.00
2023-05-22T10:35:10.762Z,133760.00
2023-05-22T10:36:10.981Z,121056.00
2023-05-22T10:37:17.303Z,121952.00
2023-05-22T10:38:10.705Z,101760.00
2023-05-22T10:39:33.725Z,87136.00
2023-05-22T10:40:10.644Z,104288.00
2023-05-22T10:41:10.807Z,133536.00
2023-05-22T10:42:10.589Z,139488.00
2023-05-22T10:43:10.586Z,124256.00
2023-05-22T10:44:10.617Z,114400.00
2023-05-22T10:45:10.509Z,109760.00
2023-05-22T10:46:11.905Z,116096.00
2023-05-22T10:47:10.460Z,124384.00
2023-05-22T10:48:10.672Z,113408.00
2023-05-22T10:49:10.404Z,99520.00
2023-05-22T10:50:10.662Z,100064.00
2023-05-22T10:51:10.359Z,110112.00
2023-05-22T10:52:11.708Z,113824.00
2023-05-22T10:53:10.306Z,106912.00
2023-05-22T10:54:10.287Z,97856.00
2023-05-22T10:55:10.486Z,110176.00
2023-05-22T10:56:31.299Z,119360.00
2023-05-22T10:57:10.207Z,115968.00
2023-05-22T10:58:11.245Z,108416.00
2023-05-22T10:59:10.254Z,112960.00
2023-05-22T11:00:10.138Z,115776.00
2023-05-22T11:01:12.391Z,109408.00
2023-05-22T11:02:11.547Z,112576.00
2023-05-22T11:03:17.889Z,123296.00
2023-05-22T11:04:10.055Z,117408.00
2023-05-22T11:05:11.260Z,106016.00
2023-05-22T11:06:09.988Z,102592.00
2023-05-22T11:07:10.383Z,109152.00
2023-05-22T11:08:09.952Z,116832.00
2023-05-22T11:09:11.022Z,117056.00
2023-05-22T11:10:09.885Z,126080.00
2023-05-22T11:11:09.927Z,128704.00
2023-05-22T11:12:10.070Z,106944.00
2023-05-22T11:13:10.035Z,88832.00
2023-05-22T11:14:09.793Z,111040.00
2023-05-22T11:15:10.850Z,135008.00
2023-05-22T11:16:09.735Z,124928.00
2023-05-22T11:17:09.849Z,101632.00
2023-05-22T11:18:10.245Z,91392.00
2023-05-22T11:19:22.636Z,124800.00
2023-05-22T11:20:09.952Z,157472.00
2023-05-22T11:21:09.614Z,152256.00
2023-05-22T11:22:09.740Z,131904.00
2023-05-22T11:23:10.757Z,105664.00
2023-05-22T11:24:10.717Z,119968.00
2023-05-22T11:25:09.566Z,128992.00
2023-05-22T11:26:11.553Z,124608.00
2023-05-22T11:27:09.482Z,121728.00
2023-05-22T11:28:09.438Z,125984.00
2023-05-22T11:29:09.444Z,137760.00
2023-05-22T11:30:09.550Z,146400.00
2023-05-22T11:31:09.462Z,116032.00
2023-05-22T11:32:11.601Z,110400.00
2023-05-22T11:33:09.348Z,137088.00
2023-05-22T11:34:10.646Z,148640.00
2023-05-22T11:35:10.383Z,126624.00
2023-05-22T11:36:09.251Z,109280.00
2023-05-22T11:37:09.374Z,112448.00
2023-05-22T11:38:09.191Z,119968.00
2023-05-22T11:39:09.390Z,126656.00
2023-05-22T11:40:09.217Z,127680.00
2023-05-22T11:41:09.436Z,126784.00
2023-05-22T11:42:09.100Z,125888.00
2023-05-22T11:43:09.229Z,136384.00
2023-05-22T11:44:09.052Z,131744.00
2023-05-22T11:45:09.044Z,111872.00
2023-05-22T11:46:09.036Z,80576.00
2023-05-22T11:47:10.276Z,89792.00
2023-05-22T11:48:09.052Z,130624.00
2023-05-22T11:49:09.060Z,156768.00
2023-05-22T11:50:08.909Z,124608.00
2023-05-22T11:51:08.887Z,79968.00
2023-05-22T11:52:08.862Z,87104.00
2023-05-22T11:53:10.344Z,131840.00
2023-05-22T11:54:08.825Z,160960.00
2023-05-22T11:55:09.131Z,144384.00
2023-05-22T11:56:08.781Z,108032.00
2023-05-22T11:57:08.778Z,112480.00
2023-05-22T11:58:09.945Z,123680.00
2023-05-22T11:59:08.977Z,140384.00
2023-05-22T12:00:09.118Z,142848.00
2023-05-22T12:01:08.672Z,132608.00
2023-05-22T12:02:08.630Z,121440.00
2023-05-22T12:03:08.674Z,119488.00
2023-05-22T12:04:08.843Z,136000.00
2023-05-22T12:05:08.636Z,33024.00
2023-05-22T12:06:29.725Z,76288.00
2023-05-22T12:07:08.515Z,85536.00
2023-05-22T12:08:08.503Z,54624.00
2023-05-22T12:09:09.608Z,76384.00
2023-05-22T12:10:08.516Z,106752.00
2023-05-22T12:11:09.883Z,119936.00
2023-05-22T12:12:08.420Z,121792.00
2023-05-22T12:13:08.621Z,25216.00
2023-05-22T12:14:08.349Z,28288.00
2023-05-22T12:15:08.439Z,105312.00
2023-05-22T12:16:08.476Z,107776.00
2023-05-22T12:17:08.442Z,101920.00